createdAt,value
2023-03-24T00:05:03.998Z,0
2023-03-24T00:20:24.959Z,0
2023-03-24T00:35:45.000Z,0
2023-03-24T00:51:06.000Z,0
2023-03-24T01:06:27.863Z,0
2023-03-24T01:37:09.796Z,0
2023-03-24T01:52:29.776Z,0
2023-03-24T02:07:50.000Z,0
2023-03-24T02:23:11.705Z,0
2023-03-24T02:38:32.662Z,0
2023-03-24T02:53:53.000Z,0
2023-03-24T03:09:14.581Z,0
2023-03-24T03:24:35.000Z,0
2023-03-24T03:39:56.000Z,0
2023-03-24T03:55:17.000Z,0
2023-03-24T04:10:38.449Z,0
2023-03-24T04:25:59.412Z,0
2023-03-24T04:41:20.368Z,0
2023-03-24T04:56:41.282Z,0
2023-03-24T05:12:01.222Z,0
2023-03-24T05:27:22.154Z,5
2023-03-24T05:42:43.061Z,11
2023-03-24T05:58:03.991Z,11
2023-03-24T06:13:24.904Z,33
2023-03-24T06:28:45.830Z,50
2023-03-24T06:44:06.753Z,73
2023-03-24T06:59:27.661Z,50
2023-03-24T07:14:48.591Z,50
2023-03-24T07:30:09.515Z,84
2023-03-24T07:45:30.428Z,174
2023-03-24T08:00:51.350Z,101
2023-03-24T08:16:12.000Z,106
2023-03-24T08:31:32.208Z,146
2023-03-24T08:46:53.119Z,146
2023-03-24T09:02:14.034Z,264
2023-03-24T09:17:34.961Z,303
2023-03-24T09:32:55.898Z,309
2023-03-24T10:03:37.000Z,450
2023-03-24T10:18:58.661Z,241
2023-03-24T10:34:19.579Z,202
2023-03-24T10:49:40.501Z,421
2023-03-24T11:05:01.437Z,466
2023-03-24T11:20:22.368Z,185
2023-03-24T11:35:43.289Z,84
2023-03-24T11:51:03.211Z,28
2023-03-24T12:06:24.111Z,56
2023-03-24T12:07:45.193Z,56
2023-03-24T12:09:06.275Z,67
2023-03-24T12:10:27.328Z,84
2023-03-24T12:11:47.419Z,90
2023-03-24T12:13:08.483Z,106
2023-03-24T12:14:29.538Z,106
2023-03-24T12:15:50.598Z,101
2023-03-24T12:17:11.691Z,101
2023-03-24T12:18:32.754Z,101
2023-03-24T12:19:53.000Z,123
2023-03-24T12:21:14.886Z,140
2023-03-24T12:22:35.000Z,163
2023-03-24T12:23:56.989Z,180
2023-03-24T12:25:18.000Z,196
2023-03-24T12:26:39.154Z,225
2023-03-24T12:28:00.000Z,213
2023-03-24T12:29:20.309Z,196
2023-03-24T12:30:41.348Z,208
2023-03-24T12:32:02.438Z,202
2023-03-24T12:33:23.000Z,163
2023-03-24T12:34:44.591Z,146
2023-03-24T12:36:05.643Z,140
2023-03-24T12:37:26.705Z,135
2023-03-24T12:38:47.762Z,123
2023-03-24T12:40:08.829Z,106
2023-03-24T12:41:29.000Z,101
2023-03-24T12:42:50.000Z,101
2023-03-24T12:44:12.038Z,106
2023-03-24T12:45:33.112Z,118
2023-03-24T12:46:53.193Z,135
2023-03-24T12:48:14.227Z,146
2023-03-24T12:49:35.000Z,118
2023-03-24T12:50:56.391Z,106
2023-03-24T12:52:17.000Z,101
2023-03-24T12:53:38.514Z,84
2023-03-24T12:54:59.000Z,67
2023-03-24T12:56:20.638Z,56
2023-03-24T12:57:41.712Z,56
2023-03-24T12:59:02.000Z,56
2023-03-24T13:00:23.842Z,56
2023-03-24T13:01:44.911Z,61
2023-03-24T13:03:05.000Z,73
2023-03-24T13:04:26.038Z,90
2023-03-24T13:05:47.121Z,95
2023-03-24T13:07:08.195Z,95
2023-03-24T13:08:29.000Z,101
2023-03-24T13:09:50.327Z,101
2023-03-24T13:11:11.000Z,106
2023-03-24T13:12:32.454Z,106
2023-03-24T13:13:53.000Z,118
2023-03-24T13:15:14.599Z,140
2023-03-24T13:16:35.660Z,157
2023-03-24T13:17:56.740Z,180
2023-03-24T13:19:17.804Z,180
2023-03-24T13:20:38.848Z,157
2023-03-24T13:21:58.000Z,140
2023-03-24T13:23:20.027Z,135
2023-03-24T13:24:41.000Z,140
2023-03-24T13:26:02.167Z,135
2023-03-24T13:27:23.000Z,123
2023-03-24T13:28:44.273Z,118
2023-03-24T13:30:05.360Z,101
2023-03-24T13:31:26.000Z,95
2023-03-24T13:32:47.000Z,95
2023-03-24T13:34:08.563Z,95
2023-03-24T13:35:29.615Z,90
2023-03-24T13:36:50.686Z,84
2023-03-24T13:38:11.000Z,78
2023-03-24T13:39:32.000Z,73
2023-03-24T13:40:52.908Z,73
2023-03-24T13:42:13.981Z,78
2023-03-24T13:43:35.000Z,90
2023-03-24T13:44:56.086Z,84
2023-03-24T13:46:17.000Z,78
2023-03-24T13:47:38.000Z,84
2023-03-24T13:48:59.000Z,95
2023-03-24T13:50:20.352Z,112
2023-03-24T13:51:41.000Z,123
2023-03-24T13:53:02.513Z,135
2023-03-24T13:54:23.000Z,135
2023-03-24T13:55:44.000Z,118
2023-03-24T13:57:05.720Z,106
2023-03-24T13:58:25.791Z,118
2023-03-24T13:59:46.000Z,157
2023-03-24T14:01:07.905Z,208
2023-03-24T14:02:29.000Z,225
2023-03-24T14:03:50.070Z,213
2023-03-24T14:05:11.000Z,168
2023-03-24T14:06:32.183Z,140
2023-03-24T14:07:53.000Z,140
2023-03-24T14:09:14.347Z,157
2023-03-24T14:10:35.403Z,185
2023-03-24T14:11:56.446Z,180
2023-03-24T14:13:17.000Z,163
2023-03-24T14:14:38.583Z,157
2023-03-24T14:15:58.000Z,163
2023-03-24T14:17:19.738Z,146
2023-03-24T14:18:40.000Z,151
2023-03-24T14:20:01.892Z,174
2023-03-24T14:21:22.000Z,208
2023-03-24T14:22:44.041Z,219
2023-03-24T14:24:05.092Z,196
2023-03-24T14:25:26.167Z,168
2023-03-24T14:26:47.000Z,135
2023-03-24T14:28:08.292Z,112
2023-03-24T14:29:29.348Z,95
2023-03-24T14:30:50.445Z,95
2023-03-24T14:32:11.501Z,106
2023-03-24T14:33:31.579Z,106
2023-03-24T14:34:52.000Z,101
2023-03-24T14:36:13.699Z,90
2023-03-24T14:37:34.000Z,84
2023-03-24T14:38:55.844Z,84
2023-03-24T14:40:16.000Z,101
2023-03-24T14:41:37.981Z,101
2023-03-24T14:42:59.044Z,101
2023-03-24T14:44:20.129Z,95
2023-03-24T14:45:41.178Z,73
2023-03-24T14:47:02.248Z,61
2023-03-24T14:48:23.309Z,61
2023-03-24T14:49:44.388Z,67
2023-03-24T14:51:04.444Z,67
2023-03-24T14:52:25.519Z,67
2023-03-24T14:53:46.597Z,67
2023-03-24T14:55:07.656Z,61
2023-03-24T14:56:28.721Z,56
2023-03-24T14:57:49.807Z,56
2023-03-24T14:59:10.863Z,67
2023-03-24T15:00:31.937Z,95
2023-03-24T15:01:52.989Z,123
2023-03-24T15:03:14.066Z,123
2023-03-24T15:04:35.129Z,123
2023-03-24T15:05:56.196Z,135
2023-03-24T15:07:17.258Z,151
2023-03-24T15:08:37.356Z,213
2023-03-24T15:09:58.414Z,213
2023-03-24T15:11:19.459Z,247
2023-03-24T15:12:40.544Z,230
2023-03-24T15:14:01.617Z,247
2023-03-24T15:15:22.681Z,191
2023-03-24T15:16:43.743Z,174
2023-03-24T15:18:04.793Z,163
2023-03-24T15:19:25.877Z,163
2023-03-24T15:20:46.948Z,157
2023-03-24T15:22:08.015Z,157
2023-03-24T15:23:29.092Z,163
2023-03-24T15:24:50.149Z,151
2023-03-24T15:26:10.240Z,146
2023-03-24T15:27:31.299Z,151
2023-03-24T15:28:52.338Z,163
2023-03-24T15:30:13.414Z,196
2023-03-24T15:31:34.494Z,196
2023-03-24T15:32:55.000Z,191
2023-03-24T15:34:16.612Z,146
2023-03-24T15:35:37.701Z,140
2023-03-24T15:36:58.761Z,140
2023-03-24T15:38:19.811Z,140
2023-03-24T15:39:40.895Z,140
2023-03-24T15:41:01.958Z,140
2023-03-24T15:42:23.035Z,140
2023-03-24T15:43:43.119Z,163
2023-03-24T15:45:04.177Z,135
2023-03-24T15:46:25.247Z,140
2023-03-24T15:47:46.280Z,123
2023-03-24T15:49:07.000Z,146
2023-03-24T15:50:28.453Z,168
2023-03-24T15:53:10.552Z,174
2023-03-24T15:54:31.658Z,168
2023-03-24T15:55:52.727Z,174
2023-03-24T15:57:13.779Z,168
2023-03-24T15:58:34.822Z,174
2023-03-24T15:59:55.918Z,168
2023-03-24T16:01:16.005Z,168
2023-03-24T16:02:37.052Z,174
2023-03-24T16:03:58.134Z,168
2023-03-24T16:05:19.161Z,163
2023-03-24T16:06:40.269Z,157
2023-03-24T16:08:01.333Z,151
2023-03-24T16:09:22.389Z,146
2023-03-24T16:10:43.477Z,146
2023-03-24T16:12:04.537Z,140
2023-03-24T16:13:25.618Z,140
2023-03-24T16:14:46.686Z,135
2023-03-24T16:16:07.727Z,135
2023-03-24T16:17:28.810Z,129
2023-03-24T16:18:48.868Z,129
2023-03-24T16:20:09.966Z,123
2023-03-24T16:21:31.036Z,123
2023-03-24T16:22:52.101Z,123
2023-03-24T16:24:13.175Z,123
2023-03-24T16:25:34.248Z,118
2023-03-24T16:26:55.277Z,118
2023-03-24T16:28:16.343Z,112
2023-03-24T16:29:37.000Z,106
2023-03-24T16:30:58.506Z,101
2023-03-24T16:32:19.564Z,101
2023-03-24T16:33:40.632Z,95
2023-03-24T16:35:01.671Z,95
2023-03-24T16:36:21.782Z,95
2023-03-24T16:37:42.863Z,95
2023-03-24T16:39:03.894Z,95
2023-03-24T16:40:24.987Z,90
2023-03-24T16:41:46.057Z,78
2023-03-24T16:43:06.147Z,73
2023-03-24T16:44:27.211Z,67
2023-03-24T16:45:48.251Z,61
2023-03-24T16:47:09.313Z,61
2023-03-24T16:48:30.408Z,56
2023-03-24T16:49:51.478Z,56
2023-03-24T16:51:12.555Z,50
2023-03-24T16:52:33.579Z,50
2023-03-24T16:53:54.683Z,45
2023-03-24T16:55:15.761Z,45
2023-03-24T16:56:36.832Z,39
2023-03-24T16:57:57.000Z,33
2023-03-24T16:59:18.957Z,33
2023-03-24T17:00:39.015Z,28
2023-03-24T17:02:00.107Z,28
2023-03-24T17:03:21.182Z,28
2023-03-24T17:04:42.238Z,33
2023-03-24T17:06:03.315Z,33
2023-03-24T17:07:24.371Z,28
2023-03-24T17:08:45.432Z,22
2023-03-24T17:10:06.517Z,22
2023-03-24T17:11:27.000Z,22
2023-03-24T17:12:48.647Z,22
2023-03-24T17:14:09.707Z,22
2023-03-24T17:15:30.791Z,16
2023-03-24T17:16:51.000Z,16
2023-03-24T17:18:11.933Z,16
2023-03-24T17:19:32.972Z,11
2023-03-24T17:20:54.052Z,11
2023-03-24T17:22:15.094Z,11
2023-03-24T17:23:36.160Z,5
2023-03-24T17:24:57.255Z,5
2023-03-24T17:26:18.328Z,5
2023-03-24T17:27:39.391Z,5
2023-03-24T17:29:00.425Z,5
2023-03-24T17:30:21.521Z,0
2023-03-24T17:31:42.596Z,0
2023-03-24T17:33:03.657Z,0
2023-03-24T17:34:24.722Z,0
2023-03-24T17:35:44.815Z,0
2023-03-24T17:37:05.887Z,0
2023-03-24T17:38:26.951Z,0
2023-03-24T17:39:47.979Z,0
2023-03-24T17:41:09.086Z,0
2023-03-24T17:42:30.156Z,0
2023-03-24T17:43:51.207Z,0
2023-03-24T17:45:12.276Z,0
2023-03-24T17:46:33.361Z,0
2023-03-24T17:47:54.397Z,0
2023-03-24T17:49:15.485Z,0
2023-03-24T17:50:36.548Z,0
2023-03-24T17:51:57.624Z,0
2023-03-24T17:53:17.750Z,0
2023-03-24T17:54:38.854Z,0
2023-03-24T17:55:59.931Z,0
2023-03-24T17:57:21.080Z,0
2023-03-24T17:58:42.147Z,0
2023-03-24T18:00:03.198Z,0
2023-03-24T18:01:24.308Z,0
2023-03-24T18:02:45.420Z,0
2023-03-24T18:04:06.502Z,0
2023-03-24T18:05:27.000Z,0
2023-03-24T18:06:48.751Z,0
2023-03-24T18:08:09.881Z,0
2023-03-24T18:09:30.977Z,0
2023-03-24T18:10:51.097Z,0
2023-03-24T18:12:12.205Z,0
2023-03-24T18:13:33.318Z,0
2023-03-24T18:14:54.429Z,0
2023-03-24T18:16:15.000Z,0
2023-03-24T18:17:36.652Z,0
2023-03-24T18:18:57.754Z,0
2023-03-24T18:20:18.853Z,0
2023-03-24T18:21:39.977Z,0
2023-03-24T18:23:01.084Z,0
2023-03-24T18:24:22.199Z,0
2023-03-24T18:25:43.279Z,0
2023-03-24T18:27:04.424Z,0
2023-03-24T18:28:24.538Z,0
2023-03-24T18:29:45.623Z,0
2023-03-24T18:31:06.762Z,0
2023-03-24T18:32:27.000Z,0
2023-03-24T18:33:48.970Z,0
2023-03-24T18:35:10.095Z,0
2023-03-24T18:36:31.204Z,0
2023-03-24T18:37:52.315Z,0
2023-03-24T18:39:13.409Z,0
2023-03-24T18:40:34.514Z,0
2023-03-24T18:41:55.635Z,0
2023-03-24T18:43:16.748Z,0
2023-03-24T18:44:37.839Z,0
2023-03-24T18:45:57.000Z,0
2023-03-24T18:47:19.083Z,0
2023-03-24T18:48:40.195Z,0
2023-03-24T18:50:01.287Z,0
2023-03-24T18:51:22.402Z,0
2023-03-24T18:52:43.527Z,0
2023-03-24T18:54:04.620Z,0
2023-03-24T18:55:25.739Z,0
2023-03-24T18:56:46.842Z,0
2023-03-24T18:58:07.944Z,0
2023-03-24T18:59:29.057Z,0
2023-03-24T19:00:50.135Z,0
2023-03-24T19:02:11.243Z,0
2023-03-24T19:03:31.401Z,0
2023-03-24T19:04:52.528Z,0
2023-03-24T19:06:13.638Z,0
2023-03-24T19:07:34.705Z,0
2023-03-24T19:08:55.862Z,0
2023-03-24T19:10:16.962Z,0
2023-03-24T19:11:38.077Z,0
2023-03-24T19:12:59.186Z,0
2023-03-24T19:14:20.282Z,0
2023-03-24T19:15:41.000Z,0
2023-03-24T19:17:02.470Z,0
2023-03-24T19:18:23.619Z,0
2023-03-24T19:19:44.716Z,0
2023-03-24T19:21:04.000Z,0
2023-03-24T19:22:25.933Z,0
2023-03-24T19:23:47.082Z,0
2023-03-24T19:25:08.150Z,0
2023-03-24T19:26:29.291Z,0
2023-03-24T19:27:50.407Z,0
2023-03-24T19:29:11.518Z,0
2023-03-24T19:30:32.621Z,0
2023-03-24T19:31:53.000Z,0
2023-03-24T19:33:14.841Z,0
2023-03-24T19:34:35.948Z,0
2023-03-24T19:35:57.065Z,0
2023-03-24T19:37:18.000Z,0
2023-03-24T19:38:38.285Z,0
2023-03-24T19:39:59.403Z,0
2023-03-24T19:41:20.508Z,0
2023-03-24T19:42:41.616Z,0
2023-03-24T19:44:02.726Z,0
2023-03-24T19:45:23.831Z,0
2023-03-24T19:46:44.948Z,0
2023-03-24T19:48:06.025Z,0
2023-03-24T19:49:27.127Z,0
2023-03-24T19:50:48.000Z,0
2023-03-24T19:52:09.000Z,0
2023-03-24T19:53:30.476Z,0
2023-03-24T19:54:51.581Z,0
2023-03-24T19:56:11.708Z,0
2023-03-24T19:57:32.796Z,0
2023-03-24T19:58:53.000Z,0
2023-03-24T20:00:15.027Z,0
2023-03-24T20:01:36.138Z,0
2023-03-24T20:02:57.267Z,0
2023-03-24T20:04:18.358Z,0
2023-03-24T20:05:39.468Z,0
2023-03-24T20:07:00.584Z,0
2023-03-24T20:08:21.649Z,0
2023-03-24T20:09:42.788Z,0
2023-03-24T20:11:03.869Z,0
2023-03-24T20:12:25.000Z,0
2023-03-24T20:13:45.099Z,0
2023-03-24T20:15:06.251Z,0
2023-03-24T20:16:27.325Z,0
2023-03-24T20:17:48.453Z,0
2023-03-24T20:19:09.564Z,0
2023-03-24T20:20:30.676Z,0
2023-03-24T20:21:51.789Z,0
2023-03-24T20:23:12.906Z,0
2023-03-24T20:24:33.995Z,0
2023-03-24T20:25:55.114Z,0
2023-03-24T20:27:16.229Z,0
2023-03-24T20:28:37.336Z,0
2023-03-24T20:29:58.434Z,0
2023-03-24T20:31:18.569Z,0
2023-03-24T20:32:39.641Z,0
2023-03-24T20:34:00.747Z,0
2023-03-24T20:35:21.851Z,0
2023-03-24T20:36:42.961Z,0
2023-03-24T20:38:04.074Z,0
2023-03-24T20:39:25.000Z,0
2023-03-24T20:40:46.317Z,0
2023-03-24T20:42:07.422Z,0
2023-03-24T20:43:28.502Z,0
2023-03-24T20:44:49.656Z,0
2023-03-24T20:46:10.746Z,0
2023-03-24T20:47:31.855Z,0
2023-03-24T20:48:51.991Z,0
2023-03-24T20:50:13.088Z,0
2023-03-24T20:51:34.209Z,0
2023-03-24T20:52:55.318Z,0
2023-03-24T20:54:16.396Z,0
2023-03-24T20:55:37.527Z,0
2023-03-24T20:56:58.640Z,0
2023-03-24T20:58:19.745Z,0
2023-03-24T20:59:40.854Z,0
2023-03-24T21:01:01.976Z,0
2023-03-24T21:02:23.075Z,0
2023-03-24T21:03:44.200Z,0
2023-03-24T21:05:05.288Z,0
2023-03-24T21:06:25.434Z,0
2023-03-24T21:07:46.527Z,0
2023-03-24T21:09:07.643Z,0
2023-03-24T21:10:28.750Z,0
2023-03-24T21:11:49.860Z,0
2023-03-24T21:13:10.967Z,0
2023-03-24T21:14:31.092Z,0
2023-03-24T21:15:52.211Z,0
2023-03-24T21:17:13.323Z,0
2023-03-24T21:18:34.414Z,0
2023-03-24T21:19:55.496Z,0
2023-03-24T21:21:16.655Z,0
2023-03-24T21:22:37.745Z,0
2023-03-24T21:23:58.872Z,0
2023-03-24T21:25:19.975Z,0
2023-03-24T21:26:41.082Z,0
2023-03-24T21:28:02.182Z,0
2023-03-24T21:29:23.295Z,0
2023-03-24T21:30:44.394Z,0
2023-03-24T21:32:04.530Z,0
2023-03-24T21:33:25.633Z,0
2023-03-24T21:34:46.701Z,0
2023-03-24T21:36:07.860Z,0
2023-03-24T21:37:28.953Z,0
2023-03-24T21:38:50.069Z,0
2023-03-24T21:40:11.183Z,0
2023-03-24T21:41:32.246Z,0
2023-03-24T21:42:53.382Z,0
2023-03-24T21:44:14.492Z,0
2023-03-24T21:59:35.457Z,0
2023-03-24T22:14:56.434Z,0
2023-03-24T22:30:17.393Z,0
2023-03-24T22:45:37.382Z,0
2023-03-24T23:16:19.311Z,0
2023-03-24T23:31:40.000Z,0
2023-03-24T23:47:01.000Z,0
